PAKTPAJN

Guest
Details From PAKT - KETCHIKAN INTL
To PAJN - Juneau Intl
Flight Number -
Tags generated
Created
Modified
Stats Distance 205 nm / 379 km
Max Altitude 22,600 ft / 6,888 m
Waypoints 3
Social Downloads 1
Likes 0
Share VATSIM

Download

Looking for another format? Having issues loading an existing format? Contact us
Advertisement - Login to hide

Notes

Basic altitude profile: - Ascent Rate: 2500ft/min - Ascent Speed: 250kts - Cruise Altitude: 35000ft - Cruise Speed: 420kts - Descent Rate: 1500ft/min - Descent Speed: 250kts Options: - Use NATs: no - Use PACOTS: no - Use low airways: yes - Use high airways: yes

Route

PAKT TURKS PAJN

ID Type Via Altitude Latitude Longitude Leg Dist Tot Dist Heading (true) Name
O PAKT APT - 0 ft / 0 m 55.35554˚ -131.71374˚ - 0 nm - KETCHIKAN INTL
TURKS FIX - 22,600 ft / 6,888 m 56.71661˚ -133.38462˚ 99 nm 99 nm 326° / 325° -
O PAJN APT - 0 ft / 0 m 58.35496˚ -134.57628˚ 105 nm 204 nm 339° / 338° Juneau Intl

Altitude Profile

Advertisement - Login to hide

Weather


0- 5 10 15 20 25 30 35+ Temperature / ° C

Clouds and Precipitation
Forecast for 2017-12-19 00:00 UTC. Updated an hour ago

Ground ~20,000 ft ~40,000 ft Winds

PAKT

Details ICAO PAKT (KTN)
Name KETCHIKAN INTL
Region USA (Alaska)
Timezone Unknown (UTC+0.0)
Stats Elevation 88 ft / 27 m (AMSL)
Location 55.355545° -131.713737°
Runways 1
Magnetic Variation 18.531° E

METAR

PAKT 182153Z VRB03KT 10SM -RA SCT008 OVC015 02/01 A2999

Decode

TAF

PAKT 182038Z 1821/1918 14008KT P6SM -SHSNRA BKN015 OVC045 FM190200 VRB06KT P6SM VCSH SCT020 OVC030 FM190800 31005KT P6SM BKN060 FM191000 31005KT 4SM BR SCT005 SCT070 AMD LTD TO CLD VIS AND WIND 1906/1915

Decode

Departure Runways

ID Width Length Bearing (true) Bearing (mag) Surface Threshold Offset Overrun Length
11 150 ft / 46 m 7,485 ft / 2,281 m 135.66° 117.13° Asphalt 0 ft / 0 m 200 ft / 61 m
29 150 ft / 46 m 7,485 ft / 2,281 m 315.68° 297.15° Asphalt 0 ft / 0 m 100 ft / 30 m

PAJN

Details ICAO PAJN (JNU)
Name Juneau Intl
Region USA (Alaska)
Timezone America/Juneau (UTC-9.0)
Stats Elevation 21 ft / 6 m (AMSL)
Location 58.354964° -134.576278°
Runways 1
Magnetic Variation 19.145° E

METAR

PAJN 182153Z 00000KT 10SM FEW013 BKN055 00/00 A3002

Decode

TAF

PAJN 181728Z 1818/1918 VRB03KT P6SM FEW001 BKN050 FM182200 VRB05KT P6SM SCT060 FM190600 08004KT P6SM FEW005

Decode

Destination Runways

ID Width Length Bearing (true) Bearing (mag) Surface Threshold Offset Overrun Length
08 150 ft / 46 m 8,430 ft / 2,570 m 104.87° 85.73° Asphalt 0 ft / 0 m 450 ft / 137 m
26 150 ft / 46 m 8,430 ft / 2,570 m 284.90° 265.76° Asphalt 0 ft / 0 m 225 ft / 69 m

Approach Navaids

Runway Type Ident Frequency Range Bearing (true) Bearing (mag) Slope Elevation
08 Localiser IJDL 109.90 MHz 18 nm / 33 km 84.92° 65.78° - 21 ft / 6 m (AMSL)
08 DME IJDL 109.90 MHz 18 nm / 33 km - - - 175 ft / 53 m (AMSL)

Popular Alternatives